createdAt,value
2019-05-14T00:01:03.180Z,1.47
2019-05-14T00:03:33.176Z,1.55
2019-05-14T00:06:02.729Z,1.65
2019-05-14T00:08:32.208Z,1.70
2019-05-14T00:11:01.836Z,1.72
2019-05-14T00:13:32.154Z,1.67
2019-05-14T00:16:01.932Z,1.40
2019-05-14T00:18:31.703Z,1.60
2019-05-14T00:21:01.977Z,1.07
2019-05-14T00:23:32.131Z,1.42
2019-05-14T00:26:02.051Z,1.22
2019-05-14T00:28:31.952Z,1.25
2019-05-14T00:31:02.920Z,1.80
2019-05-14T00:33:32.526Z,1.17
2019-05-14T00:36:02.324Z,1.60
2019-05-14T00:38:31.885Z,1.32
2019-05-14T00:41:02.115Z,1.10
2019-05-14T00:43:32.370Z,1.25
2019-05-14T00:46:02.089Z,1.20
2019-05-14T00:48:32.105Z,1.50
2019-05-14T00:51:02.344Z,1.15
2019-05-14T00:53:32.310Z,1.20
2019-05-14T00:56:02.378Z,1.25
2019-05-14T00:58:32.459Z,1.30
2019-05-14T01:01:02.086Z,1.30
2019-05-14T01:03:32.411Z,1.37
2019-05-14T01:06:03.167Z,1.15
2019-05-14T01:08:32.787Z,0.80
2019-05-14T01:11:02.326Z,1.30
2019-05-14T01:13:31.764Z,1.10
2019-05-14T01:16:01.771Z,1.25
2019-05-14T01:18:32.214Z,1.02
2019-05-14T01:21:01.924Z,1.12
2019-05-14T01:23:32.266Z,1.02
2019-05-14T01:26:02.598Z,1.02
2019-05-14T01:28:32.388Z,1.10
2019-05-14T01:31:02.435Z,1.00
2019-05-14T01:33:32.075Z,1.02
2019-05-14T01:36:02.270Z,1.10
2019-05-14T01:38:31.949Z,0.90
2019-05-14T01:41:02.071Z,0.90
2019-05-14T01:43:31.788Z,0.93
2019-05-14T01:46:02.183Z,0.70
2019-05-14T01:48:31.699Z,1.12
2019-05-14T01:51:01.702Z,0.93
2019-05-14T01:53:31.517Z,0.93
2019-05-14T01:56:01.828Z,1.10
2019-05-14T01:58:31.458Z,1.00
2019-05-14T02:01:02.108Z,1.25
2019-05-14T02:03:32.411Z,1.00
2019-05-14T02:06:01.918Z,0.70
2019-05-14T02:08:32.322Z,0.72
2019-05-14T02:11:02.047Z,0.80
2019-05-14T02:13:32.226Z,0.98
2019-05-14T02:16:02.460Z,1.05
2019-05-14T02:18:32.349Z,0.95
2019-05-14T02:21:01.989Z,0.60
2019-05-14T02:23:32.211Z,0.82
2019-05-14T02:26:02.536Z,1.10
2019-05-14T02:28:33.222Z,0.90
2019-05-14T02:31:03.955Z,0.82
2019-05-14T02:33:33.629Z,1.00
2019-05-14T02:36:03.091Z,0.80
2019-05-14T02:38:32.560Z,1.27
2019-05-14T02:41:02.005Z,0.85
2019-05-14T02:43:31.600Z,0.90
2019-05-14T02:46:11.328Z,1.00
2019-05-14T02:48:32.204Z,1.00
2019-05-14T02:51:01.671Z,0.80
2019-05-14T02:53:31.106Z,0.65
2019-05-14T02:56:00.847Z,0.90
2019-05-14T02:58:30.527Z,0.90
2019-05-14T03:01:00.609Z,0.78
2019-05-14T03:03:30.414Z,0.62
2019-05-14T03:06:00.558Z,1.20
2019-05-14T03:08:30.883Z,0.93
2019-05-14T03:11:00.772Z,1.00
2019-05-14T03:13:30.445Z,1.10
2019-05-14T03:15:59.874Z,1.05
2019-05-14T03:18:29.913Z,0.80
2019-05-14T03:21:00.829Z,0.98
2019-05-14T03:23:30.799Z,1.02
2019-05-14T03:26:00.981Z,1.22
2019-05-14T03:28:30.907Z,0.88
2019-05-14T03:31:02.934Z,0.85
2019-05-14T03:33:33.768Z,0.90
2019-05-14T03:36:09.313Z,1.10
2019-05-14T03:38:34.347Z,0.80
2019-05-14T03:41:03.900Z,1.15
2019-05-14T03:43:33.700Z,0.98
2019-05-14T03:46:03.357Z,0.88
2019-05-14T03:48:32.894Z,0.62
2019-05-14T03:51:02.796Z,0.70
2019-05-14T03:53:49.722Z,0.90
2019-05-14T03:56:03.678Z,1.10
2019-05-14T03:58:33.195Z,0.95
2019-05-14T04:01:09.697Z,1.05
2019-05-14T04:03:39.915Z,1.00
2019-05-14T04:06:11.470Z,0.90
2019-05-14T04:08:43.008Z,0.88
2019-05-14T04:11:15.090Z,0.80
2019-05-14T04:13:49.385Z,0.95
2019-05-14T04:16:20.650Z,0.85
2019-05-14T04:18:53.012Z,0.82
2019-05-14T04:21:22.710Z,0.78
2019-05-14T04:23:53.505Z,0.82
2019-05-14T04:26:23.152Z,0.90
2019-05-14T04:28:54.247Z,0.80
2019-05-14T04:31:23.679Z,0.70
2019-05-14T04:33:54.754Z,0.80
2019-05-14T04:36:24.232Z,0.80
2019-05-14T04:38:55.170Z,0.88
2019-05-14T04:41:24.969Z,0.70
2019-05-14T04:43:54.427Z,0.80
2019-05-14T04:46:24.005Z,0.98
2019-05-14T04:48:53.598Z,1.15
2019-05-14T04:51:23.441Z,0.90
2019-05-14T04:53:52.877Z,0.62
2019-05-14T04:56:22.378Z,0.90
2019-05-14T04:58:51.900Z,1.00
2019-05-14T05:01:21.423Z,0.88
2019-05-14T05:03:51.180Z,0.85
2019-05-14T05:06:20.665Z,0.80
2019-05-14T05:08:50.483Z,0.88
2019-05-14T05:11:21.437Z,1.02
2019-05-14T05:13:51.260Z,0.82
2019-05-14T05:16:20.701Z,1.05
2019-05-14T05:18:50.226Z,0.70
2019-05-14T05:21:19.746Z,0.80
2019-05-14T05:23:49.547Z,0.70
2019-05-14T05:26:19.033Z,0.60
2019-05-14T05:29:02.352Z,0.80
2019-05-14T05:31:19.808Z,0.90
2019-05-14T05:33:49.377Z,1.27
2019-05-14T05:36:18.872Z,1.00
2019-05-14T05:38:49.294Z,0.80
2019-05-14T05:41:19.422Z,0.82
2019-05-14T05:43:49.104Z,1.02
2019-05-14T05:46:19.395Z,0.85
2019-05-14T05:48:49.905Z,0.72
2019-05-14T05:51:19.356Z,0.90
2019-05-14T05:53:49.211Z,1.07
2019-05-14T05:56:18.983Z,1.17
2019-05-14T05:58:49.095Z,1.40
2019-05-14T06:01:19.802Z,1.60
2019-05-14T06:03:49.663Z,1.42
2019-05-14T06:06:19.490Z,1.85
2019-05-14T06:08:49.542Z,1.92
2019-05-14T06:11:19.722Z,2.37
2019-05-14T06:13:49.366Z,2.90
2019-05-14T06:16:18.960Z,2.05
2019-05-14T06:18:48.788Z,2.17
2019-05-14T06:21:19.300Z,2.30
2019-05-14T06:23:49.480Z,3.08
2019-05-14T06:26:19.645Z,3.55
2019-05-14T06:28:49.810Z,3.00
2019-05-14T06:31:19.661Z,3.20
2019-05-14T06:33:49.307Z,2.55
2019-05-14T06:36:19.655Z,2.58
2019-05-14T06:38:49.862Z,1.70
2019-05-14T06:41:19.546Z,1.82
2019-05-14T06:43:49.147Z,1.70
2019-05-14T06:46:19.297Z,2.72
2019-05-14T06:48:49.181Z,3.58
2019-05-14T06:51:19.840Z,3.45
2019-05-14T06:53:50.253Z,3.83
2019-05-14T06:56:21.844Z,2.70
2019-05-14T06:58:51.107Z,2.75
2019-05-14T07:01:20.589Z,3.37
2019-05-14T07:03:50.114Z,3.30
2019-05-14T07:06:19.643Z,2.77
2019-05-14T07:08:52.445Z,2.92
2019-05-14T07:11:20.492Z,2.90
2019-05-14T07:13:50.091Z,2.22
2019-05-14T07:16:20.089Z,2.67
2019-05-14T07:18:53.955Z,2.30
2019-05-14T07:21:20.854Z,2.37
2019-05-14T07:23:50.511Z,2.45
2019-05-14T07:26:20.633Z,2.02
2019-05-14T07:28:50.176Z,2.50
2019-05-14T07:31:19.757Z,2.45
2019-05-14T07:33:49.667Z,2.17
2019-05-14T07:36:19.316Z,2.15
2019-05-14T07:38:49.380Z,1.67
2019-05-14T07:41:19.498Z,1.87
2019-05-14T07:43:49.225Z,1.90
2019-05-14T07:46:19.376Z,2.00
2019-05-14T07:49:03.499Z,2.02
2019-05-14T07:51:20.173Z,1.80
2019-05-14T07:53:49.772Z,1.90
2019-05-14T07:56:19.242Z,1.50
2019-05-14T07:58:49.297Z,1.42
2019-05-14T08:01:19.083Z,1.40
2019-05-14T08:03:49.096Z,1.50
2019-05-14T08:06:19.239Z,1.57
2019-05-14T08:08:49.504Z,1.45
2019-05-14T08:11:19.414Z,1.47
2019-05-14T08:13:49.546Z,1.40
2019-05-14T08:16:19.387Z,1.62
2019-05-14T08:18:49.085Z,1.40
2019-05-14T08:21:19.556Z,1.02
2019-05-14T08:23:49.133Z,1.02
2019-05-14T08:26:19.358Z,1.10
2019-05-14T08:28:49.210Z,1.02
2019-05-14T08:31:19.032Z,1.17
2019-05-14T08:33:49.197Z,1.00
2019-05-14T08:36:18.410Z,1.10
2019-05-14T08:38:49.992Z,0.80
2019-05-14T08:41:19.959Z,1.15
2019-05-14T08:43:49.675Z,0.90
2019-05-14T08:46:19.562Z,0.85
2019-05-14T08:48:49.917Z,0.82
2019-05-14T08:51:19.792Z,1.17
2019-05-14T08:53:50.585Z,1.10
2019-05-14T08:56:20.232Z,0.93
2019-05-14T08:58:49.795Z,0.60
2019-05-14T09:01:19.938Z,1.05
2019-05-14T09:03:49.787Z,0.57
2019-05-14T09:06:19.475Z,1.00
2019-05-14T09:08:49.545Z,0.90
2019-05-14T09:11:24.644Z,0.65
2019-05-14T09:13:50.698Z,0.95
2019-05-14T09:16:37.088Z,0.65
2019-05-14T09:18:51.478Z,1.62
2019-05-14T09:21:20.954Z,1.22
2019-05-14T09:23:50.426Z,1.00
2019-05-14T09:26:19.934Z,1.02
2019-05-14T09:28:49.438Z,1.00
2019-05-14T09:33:18.710Z,1.20
2019-05-14T09:33:50.258Z,1.10
2019-05-14T09:36:23.996Z,1.10
2019-05-14T09:38:51.092Z,1.40
2019-05-14T09:41:20.782Z,1.00
2019-05-14T09:43:50.270Z,1.35
2019-05-14T09:46:19.805Z,0.93
2019-05-14T09:48:49.263Z,0.85
2019-05-14T09:51:18.730Z,0.90
2019-05-14T09:53:48.937Z,1.10
2019-05-14T09:56:18.977Z,1.12
2019-05-14T09:58:49.527Z,1.00
2019-05-14T10:01:19.733Z,1.10
2019-05-14T10:03:49.846Z,1.10
2019-05-14T10:06:20.744Z,0.75
2019-05-14T10:08:50.515Z,0.90
2019-05-14T10:11:20.004Z,1.00
2019-05-14T10:13:49.507Z,0.95
2019-05-14T10:16:19.226Z,1.15
2019-05-14T10:18:52.360Z,0.90
2019-05-14T10:21:19.903Z,0.80
2019-05-14T10:23:49.396Z,0.85
2019-05-14T10:26:18.892Z,0.88
2019-05-14T10:28:48.694Z,1.00
2019-05-14T10:31:18.604Z,1.02
2019-05-14T10:33:48.739Z,1.00
2019-05-14T10:36:19.376Z,0.82
2019-05-14T10:38:49.104Z,1.00
2019-05-14T10:41:18.744Z,0.82
2019-05-14T10:43:49.651Z,0.70
2019-05-14T10:46:19.590Z,0.80
2019-05-14T10:48:49.095Z,0.82
2019-05-14T10:51:18.637Z,0.70
2019-05-14T10:53:49.047Z,0.70
2019-05-14T10:56:19.213Z,0.70
2019-05-14T10:58:49.338Z,0.70
2019-05-14T11:01:22.411Z,0.68
2019-05-14T11:03:50.110Z,0.80
2019-05-14T11:06:19.573Z,0.72
2019-05-14T11:08:49.500Z,0.57
2019-05-14T11:11:19.245Z,0.80
2019-05-14T11:13:48.952Z,0.93
2019-05-14T11:16:19.109Z,0.62
2019-05-14T11:18:49.771Z,0.82
2019-05-14T11:21:26.318Z,0.93
2019-05-14T11:23:50.930Z,0.70
2019-05-14T11:26:20.365Z,0.60
2019-05-14T11:28:49.899Z,0.60
2019-05-14T11:31:19.561Z,0.50
2019-05-14T11:33:49.815Z,0.60
2019-05-14T11:36:19.511Z,0.62
2019-05-14T11:38:50.670Z,0.60
2019-05-14T11:41:20.712Z,0.72
2019-05-14T11:43:50.272Z,0.60
2019-05-14T11:46:33.574Z,0.70
2019-05-14T11:48:51.046Z,0.65
2019-05-14T11:51:45.809Z,0.70
2019-05-14T11:53:51.869Z,0.60
2019-05-14T11:56:21.356Z,0.70
2019-05-14T11:58:50.908Z,0.57
2019-05-14T12:01:20.356Z,0.70
2019-05-14T12:03:50.649Z,0.70
2019-05-14T12:06:20.303Z,0.47
2019-05-14T12:08:49.769Z,0.57
2019-05-14T12:11:19.658Z,0.72
2019-05-14T12:13:49.230Z,0.55
2019-05-14T12:16:18.759Z,0.53
2019-05-14T12:18:48.578Z,0.60
2019-05-14T12:21:18.045Z,0.80
2019-05-14T12:23:47.592Z,0.70
2019-05-14T12:26:19.094Z,0.62
2019-05-14T12:28:49.394Z,0.50
2019-05-14T12:31:19.162Z,0.55
2019-05-14T12:33:48.938Z,0.50
2019-05-14T12:36:19.251Z,0.50
2019-05-14T12:38:49.283Z,0.55
2019-05-14T12:41:19.587Z,0.55
2019-05-14T12:43:49.267Z,0.42
2019-05-14T12:46:20.086Z,0.35
2019-05-14T12:48:49.906Z,0.50
2019-05-14T12:51:19.432Z,0.60
2019-05-14T12:53:49.043Z,0.30
2019-05-14T12:56:19.019Z,0.60
2019-05-14T12:58:49.218Z,0.40
2019-05-14T13:01:20.011Z,0.68
2019-05-14T13:03:49.814Z,0.60
2019-05-14T13:06:19.448Z,0.90
2019-05-14T13:08:49.401Z,0.72
2019-05-14T13:11:19.177Z,0.70
2019-05-14T13:13:49.181Z,0.50
2019-05-14T13:16:19.531Z,0.68
2019-05-14T13:18:50.181Z,0.40
2019-05-14T13:21:19.929Z,0.55
2019-05-14T13:23:49.438Z,0.40
2019-05-14T13:26:19.194Z,0.78
2019-05-14T13:28:50.779Z,0.60
2019-05-14T13:31:19.902Z,0.50
2019-05-14T13:33:49.520Z,0.70
2019-05-14T13:36:20.552Z,0.93
2019-05-14T13:38:50.448Z,0.50
2019-05-14T13:41:19.935Z,0.95
2019-05-14T13:43:50.661Z,1.10
2019-05-14T13:46:20.414Z,1.87
2019-05-14T13:48:50.402Z,2.00
2019-05-14T13:51:20.007Z,2.25
2019-05-14T13:53:50.069Z,1.40
2019-05-14T13:56:19.754Z,1.62
2019-05-14T13:58:49.351Z,1.02
2019-05-14T14:01:19.554Z,1.67
2019-05-14T14:04:02.126Z,1.35
2019-05-14T14:06:20.985Z,1.00
2019-05-14T14:08:50.676Z,0.90
2019-05-14T14:11:20.148Z,0.95
2019-05-14T14:13:49.613Z,1.27
2019-05-14T14:16:19.957Z,0.98
2019-05-14T14:18:50.254Z,1.30
2019-05-14T14:21:20.134Z,0.70
2019-05-14T14:23:50.018Z,0.95
2019-05-14T14:26:19.586Z,0.90
2019-05-14T14:28:49.671Z,0.70
2019-05-14T14:31:19.398Z,0.80
2019-05-14T14:33:49.068Z,0.90
2019-05-14T14:36:19.976Z,0.90
2019-05-14T14:38:50.108Z,0.98
2019-05-14T14:41:19.862Z,0.88
2019-05-14T14:43:53.164Z,0.82
2019-05-14T14:46:20.613Z,1.22
2019-05-14T14:48:50.080Z,0.57
2019-05-14T14:51:19.744Z,0.70
2019-05-14T14:53:58.962Z,0.90
2019-05-14T14:56:20.636Z,0.70
2019-05-14T14:58:50.195Z,0.60
2019-05-14T15:01:20.085Z,0.80
2019-05-14T15:03:50.634Z,0.95
2019-05-14T15:06:20.900Z,0.90
2019-05-14T15:08:51.359Z,1.32
2019-05-14T15:11:20.771Z,0.50
2019-05-14T15:13:50.311Z,0.90
2019-05-14T15:16:20.351Z,1.02
2019-05-14T15:18:50.109Z,0.68
2019-05-14T15:21:19.660Z,0.53
2019-05-14T15:24:06.294Z,0.78
2019-05-14T15:26:20.471Z,0.70
2019-05-14T15:28:49.986Z,0.80
2019-05-14T15:31:19.508Z,0.55
2019-05-14T15:33:50.922Z,0.72
2019-05-14T15:36:20.188Z,0.70
2019-05-14T15:38:49.751Z,0.88
2019-05-14T15:41:20.365Z,1.22
2019-05-14T15:43:50.132Z,0.90
2019-05-14T15:46:19.620Z,0.65
2019-05-14T15:48:49.186Z,0.60
2019-05-14T15:51:19.600Z,0.72
2019-05-14T15:54:05.621Z,0.53
2019-05-14T15:56:20.705Z,0.78
2019-05-14T15:58:50.233Z,0.62
2019-05-14T16:01:19.737Z,1.07
2019-05-14T16:03:49.192Z,0.95
2019-05-14T16:06:19.314Z,1.50
2019-05-14T16:08:49.097Z,1.67
2019-05-14T16:11:18.892Z,1.25
2019-05-14T16:13:49.373Z,1.05
2019-05-14T16:16:19.763Z,0.90
2019-05-14T16:18:49.353Z,1.05
2019-05-14T16:21:18.833Z,1.05
2019-05-14T16:23:48.394Z,0.82
2019-05-14T16:26:18.716Z,1.00
2019-05-14T16:28:48.589Z,1.17
2019-05-14T16:31:18.473Z,1.10
2019-05-14T16:33:49.291Z,0.90
2019-05-14T16:36:19.386Z,0.98
2019-05-14T16:38:48.890Z,1.00
2019-05-14T16:41:18.632Z,1.02
2019-05-14T16:43:49.561Z,0.80
2019-05-14T16:46:19.414Z,0.80
2019-05-14T16:48:49.128Z,0.72
2019-05-14T16:51:19.449Z,0.80
2019-05-14T16:53:49.417Z,0.60
2019-05-14T16:56:19.411Z,0.80
2019-05-14T16:58:49.005Z,0.93
2019-05-14T17:01:19.397Z,0.80
2019-05-14T17:03:49.653Z,0.60
2019-05-14T17:06:19.366Z,0.55
2019-05-14T17:08:49.257Z,0.78
2019-05-14T17:11:18.883Z,0.70
2019-05-14T17:13:49.098Z,0.78
2019-05-14T17:16:19.578Z,0.70
2019-05-14T17:18:49.319Z,0.98
2019-05-14T17:21:18.842Z,0.57
2019-05-14T17:23:49.032Z,0.70
2019-05-14T17:26:19.709Z,0.60
2019-05-14T17:28:49.366Z,0.80
2019-05-14T17:31:19.300Z,0.90
2019-05-14T17:33:49.455Z,0.70
2019-05-14T17:36:19.129Z,0.50
2019-05-14T17:38:49.498Z,0.75
2019-05-14T17:41:19.669Z,0.55
2019-05-14T17:43:49.620Z,0.53
2019-05-14T17:46:19.436Z,0.68
2019-05-14T17:48:49.026Z,0.60
2019-05-14T17:51:18.686Z,0.80
2019-05-14T17:53:48.384Z,0.90
2019-05-14T17:56:19.078Z,0.70
2019-05-14T17:58:49.413Z,0.62
2019-05-14T18:01:18.964Z,0.60
2019-05-14T18:03:49.268Z,0.80
2019-05-14T18:06:19.128Z,0.72
2019-05-14T18:08:48.599Z,0.75
2019-05-14T18:11:19.163Z,0.90
2019-05-14T18:13:49.013Z,0.80
2019-05-14T18:16:19.165Z,0.90
2019-05-14T18:18:49.389Z,0.85
2019-05-14T18:21:19.311Z,0.72
2019-05-14T18:23:49.290Z,1.17
2019-05-14T18:26:19.197Z,1.00
2019-05-14T18:28:48.737Z,1.05
2019-05-14T18:31:20.296Z,1.12
2019-05-14T18:33:49.119Z,1.20
2019-05-14T18:36:19.389Z,0.95
2019-05-14T18:38:49.505Z,1.02
2019-05-14T18:41:19.486Z,1.15
2019-05-14T18:43:49.150Z,1.17
2019-05-14T18:46:19.360Z,1.20
2019-05-14T18:48:49.131Z,0.90
2019-05-14T18:51:19.727Z,1.30
2019-05-14T18:53:49.589Z,1.10
2019-05-14T18:56:23.876Z,1.30
2019-05-14T18:58:50.450Z,1.50
2019-05-14T19:01:19.944Z,1.10
2019-05-14T19:03:49.683Z,0.90
2019-05-14T19:06:19.363Z,1.25
2019-05-14T19:08:48.899Z,1.65
2019-05-14T19:11:18.562Z,1.47
2019-05-14T19:13:48.521Z,1.30
2019-05-14T19:16:18.137Z,1.77
2019-05-14T19:18:48.962Z,1.32
2019-05-14T19:21:18.602Z,1.27
2019-05-14T19:23:49.143Z,1.20
2019-05-14T19:26:32.977Z,1.35
2019-05-14T19:28:50.342Z,1.40
2019-05-14T19:31:20.050Z,1.40
2019-05-14T19:33:49.530Z,1.30
2019-05-14T19:36:19.168Z,1.07
2019-05-14T19:38:48.701Z,0.80
2019-05-14T19:41:20.942Z,1.40
2019-05-14T19:43:49.804Z,1.10
2019-05-14T19:46:19.366Z,1.32
2019-05-14T19:48:48.886Z,0.95
2019-05-14T19:51:18.890Z,1.20
2019-05-14T19:53:52.071Z,1.50
2019-05-14T19:56:20.260Z,1.05
2019-05-14T19:58:49.783Z,1.35
2019-05-14T20:01:19.536Z,1.30
2019-05-14T20:03:49.049Z,0.70
2019-05-14T20:06:18.894Z,0.90
2019-05-14T20:08:48.619Z,1.05
2019-05-14T20:11:19.283Z,0.80
2019-05-14T20:13:49.043Z,1.10
2019-05-14T20:16:18.661Z,1.37
2019-05-14T20:18:48.775Z,1.40
2019-05-14T20:21:18.442Z,1.80
2019-05-14T20:23:48.273Z,1.40
2019-05-14T20:26:17.867Z,1.47
2019-05-14T20:28:48.394Z,1.30
2019-05-14T20:31:18.287Z,1.72
2019-05-14T20:33:48.534Z,1.40
2019-05-14T20:36:18.785Z,0.93
2019-05-14T20:38:49.919Z,1.32
2019-05-14T20:41:19.732Z,1.30
2019-05-14T20:43:49.329Z,1.05
2019-05-14T20:46:18.848Z,1.40
2019-05-14T20:48:48.455Z,1.07
2019-05-14T20:51:18.614Z,0.95
2019-05-14T20:53:48.832Z,1.10
2019-05-14T20:56:19.049Z,1.07
2019-05-14T20:58:48.755Z,1.40
2019-05-14T21:01:18.620Z,1.20
2019-05-14T21:03:49.548Z,1.62
2019-05-14T21:06:19.859Z,1.12
2019-05-14T21:08:50.846Z,0.90
2019-05-14T21:11:20.658Z,1.12
2019-05-14T21:13:50.508Z,1.35
2019-05-14T21:16:20.069Z,1.35
2019-05-14T21:18:49.624Z,0.90
2019-05-14T21:21:20.900Z,1.00
2019-05-14T21:23:50.475Z,1.05
2019-05-14T21:26:19.930Z,1.22
2019-05-14T21:28:49.428Z,1.20
2019-05-14T21:31:18.932Z,1.30
2019-05-14T21:33:49.092Z,1.30
2019-05-14T21:36:19.303Z,1.10
2019-05-14T21:38:49.335Z,1.35
2019-05-14T21:41:20.552Z,1.20
2019-05-14T21:43:50.228Z,1.30
2019-05-14T21:46:19.856Z,1.35
2019-05-14T21:48:49.408Z,1.05
2019-05-14T21:51:18.901Z,1.00
2019-05-14T21:53:48.541Z,1.42
2019-05-14T21:56:21.684Z,1.40
2019-05-14T21:58:49.265Z,1.62
2019-05-14T22:01:19.429Z,1.32
2019-05-14T22:03:49.017Z,1.45
2019-05-14T22:06:18.669Z,1.57
2019-05-14T22:08:48.758Z,1.22
2019-05-14T22:11:18.937Z,1.37
2019-05-14T22:13:49.636Z,1.37
2019-05-14T22:16:19.397Z,1.47
2019-05-14T22:18:48.915Z,0.90
2019-05-14T22:21:18.548Z,1.60
2019-05-14T22:23:48.323Z,0.93
2019-05-14T22:26:18.650Z,1.15
2019-05-14T22:28:48.300Z,1.30
2019-05-14T22:31:19.260Z,1.10
2019-05-14T22:33:48.933Z,1.30
2019-05-14T22:36:21.435Z,1.25
2019-05-14T22:38:49.780Z,1.85
2019-05-14T22:41:22.204Z,1.20
2019-05-14T22:43:51.694Z,1.20
2019-05-14T22:46:21.256Z,1.27
2019-05-14T22:48:51.755Z,1.32
2019-05-14T22:51:21.849Z,1.42
2019-05-14T22:53:51.875Z,1.30
2019-05-14T22:56:21.756Z,1.60
2019-05-14T22:58:51.244Z,1.40
2019-05-14T23:01:20.787Z,1.50
2019-05-14T23:03:50.321Z,1.40
2019-05-14T23:06:19.807Z,1.55
2019-05-14T23:08:49.363Z,1.45
2019-05-14T23:11:19.834Z,1.27
2019-05-14T23:13:49.446Z,1.40
2019-05-14T23:16:30.965Z,1.20
2019-05-14T23:18:50.332Z,1.40
2019-05-14T23:21:19.826Z,1.12
2019-05-14T23:23:49.364Z,1.20
2019-05-14T23:26:19.285Z,1.60
2019-05-14T23:28:49.280Z,1.50
2019-05-14T23:31:18.842Z,1.70
2019-05-14T23:33:49.040Z,1.57
2019-05-14T23:36:18.672Z,1.32
2019-05-14T23:38:49.281Z,1.45
2019-05-14T23:41:19.238Z,1.95
2019-05-14T23:43:48.697Z,1.45
2019-05-14T23:46:18.430Z,1.30
2019-05-14T23:48:48.464Z,1.25
2019-05-14T23:51:18.348Z,1.40
2019-05-14T23:53:48.389Z,1.75
2019-05-14T23:56:19.414Z,1.52
2019-05-14T23:58:55.893Z,1.50
